sensor_id;sensor_type;location;lat;lon;timestamp;P1;durP1;ratioP1;P2;durP2;ratioP2
71667;SDS011;59504;54.806;9.640;2022-08-11T00:01:30;3.25;;;1.60;;
71667;SDS011;59504;54.806;9.640;2022-08-11T00:03:31;7.28;;;1.30;;
71667;SDS011;59504;54.806;9.640;2022-08-11T00:05:38;2.08;;;1.10;;
71667;SDS011;59504;54.806;9.640;2022-08-11T00:07:53;3.22;;;1.27;;
71667;SDS011;59504;54.806;9.640;2022-08-11T00:09:56;3.78;;;1.17;;
71667;SDS011;59504;54.806;9.640;2022-08-11T00:11:58;6.33;;;1.67;;
71667;SDS011;59504;54.806;9.640;2022-08-11T00:14:00;4.00;;;1.42;;
71667;SDS011;59504;54.806;9.640;2022-08-11T00:16:04;3.42;;;1.42;;
71667;SDS011;59504;54.806;9.640;2022-08-11T00:18:21;4.05;;;1.50;;
71667;SDS011;59504;54.806;9.640;2022-08-11T00:20:29;4.47;;;1.42;;
71667;SDS011;59504;54.806;9.640;2022-08-11T00:22:32;6.18;;;1.55;;
71667;SDS011;59504;54.806;9.640;2022-08-11T00:24:35;5.63;;;1.40;;
71667;SDS011;59504;54.806;9.640;2022-08-11T00:26:37;4.55;;;1.77;;
71667;SDS011;59504;54.806;9.640;2022-08-11T00:28:38;1.80;;;1.20;;
71667;SDS011;59504;54.806;9.640;2022-08-11T00:30:40;10.25;;;1.70;;
71667;SDS011;59504;54.806;9.640;2022-08-11T00:32:44;2.45;;;1.35;;
71667;SDS011;59504;54.806;9.640;2022-08-11T00:34:53;5.68;;;1.52;;
71667;SDS011;59504;54.806;9.640;2022-08-11T00:37:00;2.47;;;1.52;;
71667;SDS011;59504;54.806;9.640;2022-08-11T00:39:08;3.22;;;1.60;;
71667;SDS011;59504;54.806;9.640;2022-08-11T00:41:13;10.02;;;1.75;;
71667;SDS011;59504;54.806;9.640;2022-08-11T00:48:32;4.90;;;1.73;;
71667;SDS011;59504;54.806;9.640;2022-08-11T00:53:15;3.88;;;1.38;;
71667;SDS011;59504;54.806;9.640;2022-08-11T01:01:07;3.58;;;1.35;;
71667;SDS011;59504;54.806;9.640;2022-08-11T01:03:15;7.47;;;2.10;;
71667;SDS011;59504;54.806;9.640;2022-08-11T01:05:33;4.47;;;1.48;;
71667;SDS011;59504;54.806;9.640;2022-08-11T01:12:55;7.63;;;1.42;;
71667;SDS011;59504;54.806;9.640;2022-08-11T01:15:27;2.90;;;1.00;;
71667;SDS011;59504;54.806;9.640;2022-08-11T01:25:18;4.78;;;1.30;;
71667;SDS011;59504;54.806;9.640;2022-08-11T01:28:13;2.83;;;1.30;;
71667;SDS011;59504;54.806;9.640;2022-08-11T01:48:07;3.80;;;1.25;;
71667;SDS011;59504;54.806;9.640;2022-08-11T01:50:29;3.22;;;1.50;;
71667;SDS011;59504;54.806;9.640;2022-08-11T01:53:07;4.97;;;1.33;;
71667;SDS011;59504;54.806;9.640;2022-08-11T01:59:44;1.42;;;0.90;;
71667;SDS011;59504;54.806;9.640;2022-08-11T02:05:02;4.00;;;1.30;;
71667;SDS011;59504;54.806;9.640;2022-08-11T02:07:35;1.35;;;0.90;;
71667;SDS011;59504;54.806;9.640;2022-08-11T02:10:10;3.17;;;1.25;;
71667;SDS011;59504;54.806;9.640;2022-08-11T02:12:49;1.45;;;1.15;;
71667;SDS011;59504;54.806;9.640;2022-08-11T02:17:35;1.40;;;1.00;;
71667;SDS011;59504;54.806;9.640;2022-08-11T02:20:42;5.55;;;1.40;;
71667;SDS011;59504;54.806;9.640;2022-08-11T02:22:59;1.63;;;0.95;;
71667;SDS011;59504;54.806;9.640;2022-08-11T02:27:42;2.33;;;1.50;;
71667;SDS011;59504;54.806;9.640;2022-08-11T02:32:11;4.13;;;1.27;;
71667;SDS011;59504;54.806;9.640;2022-08-11T02:39:24;9.02;;;1.70;;
71667;SDS011;59504;54.806;9.640;2022-08-11T02:41:35;4.57;;;1.67;;
71667;SDS011;59504;54.806;9.640;2022-08-11T02:46:20;3.88;;;1.38;;
71667;SDS011;59504;54.806;9.640;2022-08-11T02:48:37;2.80;;;1.20;;
71667;SDS011;59504;54.806;9.640;2022-08-11T03:00:15;3.10;;;1.65;;
71667;SDS011;59504;54.806;9.640;2022-08-11T03:05:20;3.15;;;1.55;;
71667;SDS011;59504;54.806;9.640;2022-08-11T03:10:21;4.13;;;1.60;;
71667;SDS011;59504;54.806;9.640;2022-08-11T03:12:38;4.43;;;1.80;;
71667;SDS011;59504;54.806;9.640;2022-08-11T03:15:27;5.90;;;2.40;;
71667;SDS011;59504;54.806;9.640;2022-08-11T03:20:33;7.38;;;4.13;;
71667;SDS011;59504;54.806;9.640;2022-08-11T03:25:23;14.88;;;5.85;;
71667;SDS011;59504;54.806;9.640;2022-08-11T03:30:28;12.55;;;6.68;;
71667;SDS011;59504;54.806;9.640;2022-08-11T03:32:34;10.10;;;5.78;;
71667;SDS011;59504;54.806;9.640;2022-08-11T03:34:45;11.13;;;5.90;;
71667;SDS011;59504;54.806;9.640;2022-08-11T03:39:09;14.43;;;6.25;;
71667;SDS011;59504;54.806;9.640;2022-08-11T03:41:25;15.30;;;6.80;;
71667;SDS011;59504;54.806;9.640;2022-08-11T03:44:02;15.50;;;7.07;;
71667;SDS011;59504;54.806;9.640;2022-08-11T04:00:15;9.88;;;6.15;;
71667;SDS011;59504;54.806;9.640;2022-08-11T04:05:09;9.20;;;5.43;;
71667;SDS011;59504;54.806;9.640;2022-08-11T04:28:49;21.35;;;7.63;;
71667;SDS011;59504;54.806;9.640;2022-08-11T04:31:08;15.27;;;7.35;;
71667;SDS011;59504;54.806;9.640;2022-08-11T04:33:43;16.98;;;8.00;;
71667;SDS011;59504;54.806;9.640;2022-08-11T04:53:28;7.95;;;5.32;;
71667;SDS011;59504;54.806;9.640;2022-08-11T04:58:48;11.85;;;7.07;;
71667;SDS011;59504;54.806;9.640;2022-08-11T05:09:06;14.63;;;7.72;;
71667;SDS011;59504;54.806;9.640;2022-08-11T05:13:33;18.55;;;9.55;;
71667;SDS011;59504;54.806;9.640;2022-08-11T05:18:59;17.02;;;8.70;;
71667;SDS011;59504;54.806;9.640;2022-08-11T05:21:20;16.77;;;8.32;;
71667;SDS011;59504;54.806;9.640;2022-08-11T05:23:45;17.10;;;8.82;;
71667;SDS011;59504;54.806;9.640;2022-08-11T05:28:18;13.73;;;8.00;;
71667;SDS011;59504;54.806;9.640;2022-08-11T05:30:46;12.77;;;6.28;;
71667;SDS011;59504;54.806;9.640;2022-08-11T05:33:09;17.75;;;6.28;;
71667;SDS011;59504;54.806;9.640;2022-08-11T05:37:42;11.00;;;5.05;;
71667;SDS011;59504;54.806;9.640;2022-08-11T05:40:07;7.72;;;4.68;;
71667;SDS011;59504;54.806;9.640;2022-08-11T05:42:30;8.15;;;4.72;;
71667;SDS011;59504;54.806;9.640;2022-08-11T05:44:52;8.13;;;5.10;;
71667;SDS011;59504;54.806;9.640;2022-08-11T05:49:47;7.65;;;4.43;;
71667;SDS011;59504;54.806;9.640;2022-08-11T05:52:13;6.30;;;3.80;;
71667;SDS011;59504;54.806;9.640;2022-08-11T05:54:33;8.40;;;3.78;;
71667;SDS011;59504;54.806;9.640;2022-08-11T05:56:55;8.63;;;4.53;;
71667;SDS011;59504;54.806;9.640;2022-08-11T06:02:17;5.72;;;3.55;;
71667;SDS011;59504;54.806;9.640;2022-08-11T06:04:22;9.95;;;4.38;;
71667;SDS011;59504;54.806;9.640;2022-08-11T06:06:24;8.68;;;3.50;;
71667;SDS011;59504;54.806;9.640;2022-08-11T06:08:31;7.60;;;3.53;;
71667;SDS011;59504;54.806;9.640;2022-08-11T06:10:36;12.15;;;4.05;;
71667;SDS011;59504;54.806;9.640;2022-08-11T06:12:39;9.98;;;3.70;;
71667;SDS011;59504;54.806;9.640;2022-08-11T06:14:42;8.25;;;3.63;;
71667;SDS011;59504;54.806;9.640;2022-08-11T06:16:48;7.45;;;3.78;;
71667;SDS011;59504;54.806;9.640;2022-08-11T06:18:52;4.32;;;3.28;;
71667;SDS011;59504;54.806;9.640;2022-08-11T06:20:53;9.82;;;4.20;;
71667;SDS011;59504;54.806;9.640;2022-08-11T06:23:03;8.02;;;3.38;;
71667;SDS011;59504;54.806;9.640;2022-08-11T06:25:07;4.72;;;3.40;;
71667;SDS011;59504;54.806;9.640;2022-08-11T06:27:08;5.70;;;3.42;;
71667;SDS011;59504;54.806;9.640;2022-08-11T06:29:09;7.18;;;3.45;;
71667;SDS011;59504;54.806;9.640;2022-08-11T06:31:15;7.95;;;3.80;;
71667;SDS011;59504;54.806;9.640;2022-08-11T06:33:30;10.15;;;3.70;;
71667;SDS011;59504;54.806;9.640;2022-08-11T06:35:46;6.13;;;3.35;;
71667;SDS011;59504;54.806;9.640;2022-08-11T06:38:08;8.82;;;3.90;;
71667;SDS011;59504;54.806;9.640;2022-08-11T06:40:34;11.30;;;4.22;;
71667;SDS011;59504;54.806;9.640;2022-08-11T06:47:20;5.68;;;2.45;;
71667;SDS011;59504;54.806;9.640;2022-08-11T06:49:23;6.45;;;2.95;;
71667;SDS011;59504;54.806;9.640;2022-08-11T06:51:51;5.57;;;2.33;;
71667;SDS011;59504;54.806;9.640;2022-08-11T06:53:54;3.75;;;2.20;;
71667;SDS011;59504;54.806;9.640;2022-08-11T06:55:58;5.88;;;2.00;;
71667;SDS011;59504;54.806;9.640;2022-08-11T06:58:19;9.32;;;2.30;;
71667;SDS011;59504;54.806;9.640;2022-08-11T07:00:40;6.10;;;1.67;;
71667;SDS011;59504;54.806;9.640;2022-08-11T07:02:45;2.58;;;1.58;;
71667;SDS011;59504;54.806;9.640;2022-08-11T07:04:55;4.70;;;2.38;;
71667;SDS011;59504;54.806;9.640;2022-08-11T07:09:32;6.88;;;1.60;;
71667;SDS011;59504;54.806;9.640;2022-08-11T07:12:01;4.80;;;1.40;;
71667;SDS011;59504;54.806;9.640;2022-08-11T07:15:02;4.63;;;1.60;;
71667;SDS011;59504;54.806;9.640;2022-08-11T07:17:27;4.38;;;1.50;;
71667;SDS011;59504;54.806;9.640;2022-08-11T07:19:31;2.70;;;1.67;;
71667;SDS011;59504;54.806;9.640;2022-08-11T07:21:54;2.90;;;1.30;;
71667;SDS011;59504;54.806;9.640;2022-08-11T07:24:17;3.17;;;1.08;;
71667;SDS011;59504;54.806;9.640;2022-08-11T07:26:42;3.88;;;1.60;;
71667;SDS011;59504;54.806;9.640;2022-08-11T07:29:06;8.85;;;1.85;;
71667;SDS011;59504;54.806;9.640;2022-08-11T07:31:16;6.05;;;2.10;;
71667;SDS011;59504;54.806;9.640;2022-08-11T07:33:47;5.22;;;2.00;;
71667;SDS011;59504;54.806;9.640;2022-08-11T07:38:05;8.07;;;1.95;;
71667;SDS011;59504;54.806;9.640;2022-08-11T07:40:10;4.35;;;2.10;;
71667;SDS011;59504;54.806;9.640;2022-08-11T07:42:12;6.75;;;2.30;;
71667;SDS011;59504;54.806;9.640;2022-08-11T07:44:19;4.68;;;1.52;;
71667;SDS011;59504;54.806;9.640;2022-08-11T07:46:21;5.78;;;1.77;;
71667;SDS011;59504;54.806;9.640;2022-08-11T07:48:42;6.85;;;1.48;;
71667;SDS011;59504;54.806;9.640;2022-08-11T07:51:01;5.22;;;1.48;;
71667;SDS011;59504;54.806;9.640;2022-08-11T07:53:21;2.60;;;1.25;;
71667;SDS011;59504;54.806;9.640;2022-08-11T07:55:23;2.58;;;1.45;;
71667;SDS011;59504;54.806;9.640;2022-08-11T07:57:29;6.95;;;2.10;;
71667;SDS011;59504;54.806;9.640;2022-08-11T07:59:51;3.28;;;1.70;;
71667;SDS011;59504;54.806;9.640;2022-08-11T08:02:12;3.35;;;1.45;;
71667;SDS011;59504;54.806;9.640;2022-08-11T08:04:31;7.10;;;1.33;;
71667;SDS011;59504;54.806;9.640;2022-08-11T08:06:51;11.43;;;1.38;;
71667;SDS011;59504;54.806;9.640;2022-08-11T08:09:11;4.53;;;1.30;;
71667;SDS011;59504;54.806;9.640;2022-08-11T08:11:33;5.30;;;1.30;;
71667;SDS011;59504;54.806;9.640;2022-08-11T08:13:53;6.75;;;1.52;;
71667;SDS011;59504;54.806;9.640;2022-08-11T08:16:13;2.42;;;1.00;;
71667;SDS011;59504;54.806;9.640;2022-08-11T08:18:32;2.90;;;1.00;;
71667;SDS011;59504;54.806;9.640;2022-08-11T08:22:41;12.45;;;1.75;;
71667;SDS011;59504;54.806;9.640;2022-08-11T08:24:43;3.20;;;1.27;;
71667;SDS011;59504;54.806;9.640;2022-08-11T08:26:44;2.58;;;1.30;;
71667;SDS011;59504;54.806;9.640;2022-08-11T08:29:00;4.80;;;1.15;;
71667;SDS011;59504;54.806;9.640;2022-08-11T08:31:20;6.40;;;1.23;;
71667;SDS011;59504;54.806;9.640;2022-08-11T08:33:23;7.22;;;1.60;;
71667;SDS011;59504;54.806;9.640;2022-08-11T08:35:26;2.97;;;1.40;;
71667;SDS011;59504;54.806;9.640;2022-08-11T08:37:29;2.15;;;1.10;;
71667;SDS011;59504;54.806;9.640;2022-08-11T08:39:30;8.90;;;1.17;;
71667;SDS011;59504;54.806;9.640;2022-08-11T08:41:36;5.07;;;1.13;;
71667;SDS011;59504;54.806;9.640;2022-08-11T08:43:39;6.28;;;1.10;;
71667;SDS011;59504;54.806;9.640;2022-08-11T08:45:41;4.50;;;1.10;;
71667;SDS011;59504;54.806;9.640;2022-08-11T08:47:58;2.20;;;1.00;;
71667;SDS011;59504;54.806;9.640;2022-08-11T08:50:02;2.95;;;0.90;;
71667;SDS011;59504;54.806;9.640;2022-08-11T08:52:21;4.75;;;1.42;;
71667;SDS011;59504;54.806;9.640;2022-08-11T08:54:42;2.72;;;1.00;;
71667;SDS011;59504;54.806;9.640;2022-08-11T08:56:45;2.67;;;1.20;;
71667;SDS011;59504;54.806;9.640;2022-08-11T08:58:47;7.80;;;1.60;;
71667;SDS011;59504;54.806;9.640;2022-08-11T09:00:49;7.90;;;1.25;;
71667;SDS011;59504;54.806;9.640;2022-08-11T09:02:53;3.33;;;1.25;;
71667;SDS011;59504;54.806;9.640;2022-08-11T09:04:54;7.32;;;1.17;;
71667;SDS011;59504;54.806;9.640;2022-08-11T09:06:56;5.55;;;1.33;;
71667;SDS011;59504;54.806;9.640;2022-08-11T09:08:58;3.05;;;0.93;;
71667;SDS011;59504;54.806;9.640;2022-08-11T09:11:00;5.97;;;1.20;;
71667;SDS011;59504;54.806;9.640;2022-08-11T09:13:21;4.78;;;1.10;;
71667;SDS011;59504;54.806;9.640;2022-08-11T09:15:22;5.10;;;1.42;;
71667;SDS011;59504;54.806;9.640;2022-08-11T09:17:24;1.75;;;0.85;;
71667;SDS011;59504;54.806;9.640;2022-08-11T09:19:29;7.28;;;1.05;;
71667;SDS011;59504;54.806;9.640;2022-08-11T09:21:30;2.13;;;0.98;;
71667;SDS011;59504;54.806;9.640;2022-08-11T09:23:32;8.25;;;0.90;;
71667;SDS011;59504;54.806;9.640;2022-08-11T09:25:52;2.10;;;1.00;;
71667;SDS011;59504;54.806;9.640;2022-08-11T09:28:19;5.68;;;1.40;;
71667;SDS011;59504;54.806;9.640;2022-08-11T09:32:25;5.65;;;1.08;;
71667;SDS011;59504;54.806;9.640;2022-08-11T09:34:28;2.45;;;0.90;;
71667;SDS011;59504;54.806;9.640;2022-08-11T09:36:30;3.40;;;1.40;;
71667;SDS011;59504;54.806;9.640;2022-08-11T09:38:50;3.65;;;1.05;;
71667;SDS011;59504;54.806;9.640;2022-08-11T09:41:11;3.15;;;1.20;;
71667;SDS011;59504;54.806;9.640;2022-08-11T09:43:14;1.65;;;0.98;;
71667;SDS011;59504;54.806;9.640;2022-08-11T09:45:56;3.50;;;1.20;;
71667;SDS011;59504;54.806;9.640;2022-08-11T09:48:00;4.40;;;1.40;;
71667;SDS011;59504;54.806;9.640;2022-08-11T09:50:04;7.55;;;1.42;;
71667;SDS011;59504;54.806;9.640;2022-08-11T09:52:08;2.70;;;1.10;;
71667;SDS011;59504;54.806;9.640;2022-08-11T09:54:12;3.53;;;1.35;;
71667;SDS011;59504;54.806;9.640;2022-08-11T09:56:20;1.17;;;1.00;;
71667;SDS011;59504;54.806;9.640;2022-08-11T09:58:42;8.65;;;1.27;;
71667;SDS011;59504;54.806;9.640;2022-08-11T10:00:44;7.05;;;1.60;;
71667;SDS011;59504;54.806;9.640;2022-08-11T10:02:48;2.35;;;1.23;;
71667;SDS011;59504;54.806;9.640;2022-08-11T10:04:54;6.15;;;1.30;;
71667;SDS011;59504;54.806;9.640;2022-08-11T10:07:18;2.30;;;1.20;;
71667;SDS011;59504;54.806;9.640;2022-08-11T10:09:20;7.43;;;1.20;;
71667;SDS011;59504;54.806;9.640;2022-08-11T10:11:23;1.92;;;1.20;;
71667;SDS011;59504;54.806;9.640;2022-08-11T10:13:31;1.50;;;1.00;;
71667;SDS011;59504;54.806;9.640;2022-08-11T10:15:54;2.17;;;1.17;;
71667;SDS011;59504;54.806;9.640;2022-08-11T10:17:59;1.65;;;1.10;;
71667;SDS011;59504;54.806;9.640;2022-08-11T10:20:33;5.70;;;1.13;;
71667;SDS011;59504;54.806;9.640;2022-08-11T10:22:37;4.43;;;1.13;;
71667;SDS011;59504;54.806;9.640;2022-08-11T10:24:58;2.05;;;1.00;;
71667;SDS011;59504;54.806;9.640;2022-08-11T10:27:18;3.65;;;1.00;;
71667;SDS011;59504;54.806;9.640;2022-08-11T10:29:20;5.88;;;1.10;;
71667;SDS011;59504;54.806;9.640;2022-08-11T10:31:43;25.67;;;1.90;;
71667;SDS011;59504;54.806;9.640;2022-08-11T10:34:04;3.38;;;1.10;;
71667;SDS011;59504;54.806;9.640;2022-08-11T10:36:07;1.77;;;1.08;;
71667;SDS011;59504;54.806;9.640;2022-08-11T10:38:08;2.40;;;1.15;;
71667;SDS011;59504;54.806;9.640;2022-08-11T10:40:13;11.50;;;1.90;;
71667;SDS011;59504;54.806;9.640;2022-08-11T10:42:21;6.57;;;1.10;;
71667;SDS011;59504;54.806;9.640;2022-08-11T10:44:45;3.63;;;1.25;;
71667;SDS011;59504;54.806;9.640;2022-08-11T10:46:50;2.63;;;1.30;;
71667;SDS011;59504;54.806;9.640;2022-08-11T10:49:13;10.45;;;1.20;;
71667;SDS011;59504;54.806;9.640;2022-08-11T10:51:15;2.33;;;1.13;;
71667;SDS011;59504;54.806;9.640;2022-08-11T10:53:17;2.70;;;1.20;;
71667;SDS011;59504;54.806;9.640;2022-08-11T10:55:37;5.57;;;1.40;;
71667;SDS011;59504;54.806;9.640;2022-08-11T10:57:57;5.45;;;1.13;;
71667;SDS011;59504;54.806;9.640;2022-08-11T11:00:19;16.20;;;1.92;;
71667;SDS011;59504;54.806;9.640;2022-08-11T11:02:20;8.07;;;1.55;;
71667;SDS011;59504;54.806;9.640;2022-08-11T11:04:27;5.32;;;1.30;;
71667;SDS011;59504;54.806;9.640;2022-08-11T11:07:07;5.85;;;1.35;;
71667;SDS011;59504;54.806;9.640;2022-08-11T11:09:21;4.35;;;1.20;;
71667;SDS011;59504;54.806;9.640;2022-08-11T11:11:30;1.98;;;1.30;;
71667;SDS011;59504;54.806;9.640;2022-08-11T11:14:00;2.97;;;0.98;;
71667;SDS011;59504;54.806;9.640;2022-08-11T11:16:20;3.30;;;1.20;;
71667;SDS011;59504;54.806;9.640;2022-08-11T11:18:40;2.20;;;0.98;;
71667;SDS011;59504;54.806;9.640;2022-08-11T11:22:45;3.95;;;1.00;;
71667;SDS011;59504;54.806;9.640;2022-08-11T11:25:15;1.88;;;1.25;;
71667;SDS011;59504;54.806;9.640;2022-08-11T11:27:30;2.85;;;1.33;;
71667;SDS011;59504;54.806;9.640;2022-08-11T11:29:48;17.63;;;1.23;;
71667;SDS011;59504;54.806;9.640;2022-08-11T11:34:50;13.88;;;1.50;;
71667;SDS011;59504;54.806;9.640;2022-08-11T11:37:15;7.65;;;1.20;;
71667;SDS011;59504;54.806;9.640;2022-08-11T11:39:21;3.63;;;1.33;;
71667;SDS011;59504;54.806;9.640;2022-08-11T11:41:23;3.03;;;1.38;;
71667;SDS011;59504;54.806;9.640;2022-08-11T11:43:25;15.93;;;1.55;;
71667;SDS011;59504;54.806;9.640;2022-08-11T11:45:26;5.38;;;1.40;;
71667;SDS011;59504;54.806;9.640;2022-08-11T11:47:28;3.45;;;1.42;;
71667;SDS011;59504;54.806;9.640;2022-08-11T11:49:30;3.50;;;1.30;;
71667;SDS011;59504;54.806;9.640;2022-08-11T11:51:32;3.95;;;1.50;;
71667;SDS011;59504;54.806;9.640;2022-08-11T11:53:33;3.17;;;1.35;;
71667;SDS011;59504;54.806;9.640;2022-08-11T11:55:35;1.30;;;0.77;;
71667;SDS011;59504;54.806;9.640;2022-08-11T11:57:36;4.40;;;1.23;;
71667;SDS011;59504;54.806;9.640;2022-08-11T11:59:55;2.00;;;1.08;;
71667;SDS011;59504;54.806;9.640;2022-08-11T12:02:15;5.85;;;1.75;;
71667;SDS011;59504;54.806;9.640;2022-08-11T12:04:17;6.38;;;1.30;;
71667;SDS011;59504;54.806;9.640;2022-08-11T12:06:21;3.47;;;1.30;;
71667;SDS011;59504;54.806;9.640;2022-08-11T12:08:24;3.08;;;1.50;;
71667;SDS011;59504;54.806;9.640;2022-08-11T12:10:26;3.05;;;1.17;;
71667;SDS011;59504;54.806;9.640;2022-08-11T12:12:27;5.45;;;1.30;;
71667;SDS011;59504;54.806;9.640;2022-08-11T12:14:49;6.30;;;1.52;;
71667;SDS011;59504;54.806;9.640;2022-08-11T12:16:51;2.42;;;1.10;;
71667;SDS011;59504;54.806;9.640;2022-08-11T12:18:54;3.72;;;1.40;;
71667;SDS011;59504;54.806;9.640;2022-08-11T12:20:58;3.13;;;1.40;;
71667;SDS011;59504;54.806;9.640;2022-08-11T12:23:02;1.92;;;1.23;;
71667;SDS011;59504;54.806;9.640;2022-08-11T12:25:22;3.38;;;1.40;;
71667;SDS011;59504;54.806;9.640;2022-08-11T12:27:42;6.38;;;1.30;;
71667;SDS011;59504;54.806;9.640;2022-08-11T12:29:43;3.00;;;1.42;;
71667;SDS011;59504;54.806;9.640;2022-08-11T12:31:55;5.90;;;1.10;;
71667;SDS011;59504;54.806;9.640;2022-08-11T12:34:01;14.93;;;2.03;;
71667;SDS011;59504;54.806;9.640;2022-08-11T12:36:07;4.50;;;1.30;;
71667;SDS011;59504;54.806;9.640;2022-08-11T12:38:14;4.18;;;1.13;;
71667;SDS011;59504;54.806;9.640;2022-08-11T12:40:21;6.72;;;1.02;;
71667;SDS011;59504;54.806;9.640;2022-08-11T12:42:43;2.83;;;1.40;;
71667;SDS011;59504;54.806;9.640;2022-08-11T12:45:07;4.03;;;1.40;;
71667;SDS011;59504;54.806;9.640;2022-08-11T12:47:27;2.70;;;1.63;;
71667;SDS011;59504;54.806;9.640;2022-08-11T12:52:13;6.53;;;1.20;;
71667;SDS011;59504;54.806;9.640;2022-08-11T12:57:02;3.30;;;1.25;;
71667;SDS011;59504;54.806;9.640;2022-08-11T12:59:33;8.38;;;1.40;;
71667;SDS011;59504;54.806;9.640;2022-08-11T13:01:54;2.55;;;1.20;;
71667;SDS011;59504;54.806;9.640;2022-08-11T13:04:14;5.70;;;1.00;;
71667;SDS011;59504;54.806;9.640;2022-08-11T13:06:33;2.97;;;1.20;;
71667;SDS011;59504;54.806;9.640;2022-08-11T13:08:36;2.45;;;0.90;;
71667;SDS011;59504;54.806;9.640;2022-08-11T13:10:39;4.55;;;1.02;;
71667;SDS011;59504;54.806;9.640;2022-08-11T13:12:59;2.17;;;1.10;;
71667;SDS011;59504;54.806;9.640;2022-08-11T13:15:00;4.53;;;1.05;;
71667;SDS011;59504;54.806;9.640;2022-08-11T13:17:01;4.63;;;1.60;;
71667;SDS011;59504;54.806;9.640;2022-08-11T13:19:22;2.13;;;1.00;;
71667;SDS011;59504;54.806;9.640;2022-08-11T13:21:24;6.40;;;1.02;;
71667;SDS011;59504;54.806;9.640;2022-08-11T13:23:26;4.00;;;1.13;;
71667;SDS011;59504;54.806;9.640;2022-08-11T13:25:30;2.30;;;1.00;;
71667;SDS011;59504;54.806;9.640;2022-08-11T13:27:31;2.60;;;0.93;;
71667;SDS011;59504;54.806;9.640;2022-08-11T13:29:35;7.93;;;1.48;;
71667;SDS011;59504;54.806;9.640;2022-08-11T13:31:36;8.80;;;1.08;;
71667;SDS011;59504;54.806;9.640;2022-08-11T13:33:41;5.28;;;0.70;;
71667;SDS011;59504;54.806;9.640;2022-08-11T13:35:50;2.25;;;0.70;;
71667;SDS011;59504;54.806;9.640;2022-08-11T13:37:53;3.35;;;1.00;;
71667;SDS011;59504;54.806;9.640;2022-08-11T13:39:55;2.28;;;0.80;;
71667;SDS011;59504;54.806;9.640;2022-08-11T13:41:58;2.47;;;1.02;;
71667;SDS011;59504;54.806;9.640;2022-08-11T13:44:01;3.25;;;0.75;;
71667;SDS011;59504;54.806;9.640;2022-08-11T13:46:03;1.20;;;0.90;;
71667;SDS011;59504;54.806;9.640;2022-08-11T13:48:20;9.10;;;0.82;;
71667;SDS011;59504;54.806;9.640;2022-08-11T13:50:23;0.90;;;0.60;;
71667;SDS011;59504;54.806;9.640;2022-08-11T13:52:43;1.52;;;0.82;;
71667;SDS011;59504;54.806;9.640;2022-08-11T13:54:48;4.70;;;1.08;;
71667;SDS011;59504;54.806;9.640;2022-08-11T13:56:53;2.35;;;0.82;;
71667;SDS011;59504;54.806;9.640;2022-08-11T13:58:56;6.78;;;1.05;;
71667;SDS011;59504;54.806;9.640;2022-08-11T14:00:58;0.60;;;0.60;;
71667;SDS011;59504;54.806;9.640;2022-08-11T14:02:59;1.35;;;0.80;;
71667;SDS011;59504;54.806;9.640;2022-08-11T14:05:02;1.77;;;0.82;;
71667;SDS011;59504;54.806;9.640;2022-08-11T14:07:08;1.25;;;0.80;;
71667;SDS011;59504;54.806;9.640;2022-08-11T14:09:10;1.20;;;0.65;;
71667;SDS011;59504;54.806;9.640;2022-08-11T14:11:13;1.05;;;0.70;;
71667;SDS011;59504;54.806;9.640;2022-08-11T14:13:36;2.22;;;0.60;;
71667;SDS011;59504;54.806;9.640;2022-08-11T14:15:41;1.58;;;0.63;;
71667;SDS011;59504;54.806;9.640;2022-08-11T14:17:53;3.35;;;0.80;;
71667;SDS011;59504;54.806;9.640;2022-08-11T14:20:07;1.23;;;0.68;;
71667;SDS011;59504;54.806;9.640;2022-08-11T14:22:09;1.40;;;0.80;;
71667;SDS011;59504;54.806;9.640;2022-08-11T14:24:14;1.60;;;1.05;;
71667;SDS011;59504;54.806;9.640;2022-08-11T14:26:16;2.20;;;0.73;;
71667;SDS011;59504;54.806;9.640;2022-08-11T14:28:25;1.70;;;0.77;;
71667;SDS011;59504;54.806;9.640;2022-08-11T14:30:26;1.88;;;1.00;;
71667;SDS011;59504;54.806;9.640;2022-08-11T14:32:46;5.15;;;1.08;;
71667;SDS011;59504;54.806;9.640;2022-08-11T14:34:48;2.55;;;1.00;;
71667;SDS011;59504;54.806;9.640;2022-08-11T14:36:53;2.08;;;0.70;;
71667;SDS011;59504;54.806;9.640;2022-08-11T14:39:00;2.17;;;0.57;;
71667;SDS011;59504;54.806;9.640;2022-08-11T14:41:11;3.20;;;0.70;;
71667;SDS011;59504;54.806;9.640;2022-08-11T14:43:32;1.83;;;0.77;;
71667;SDS011;59504;54.806;9.640;2022-08-11T14:45:52;2.00;;;0.73;;
71667;SDS011;59504;54.806;9.640;2022-08-11T14:48:14;1.63;;;0.70;;
71667;SDS011;59504;54.806;9.640;2022-08-11T14:50:20;2.05;;;1.08;;
71667;SDS011;59504;54.806;9.640;2022-08-11T14:52:23;1.80;;;0.70;;
71667;SDS011;59504;54.806;9.640;2022-08-11T14:54:24;2.47;;;1.10;;
71667;SDS011;59504;54.806;9.640;2022-08-11T14:56:46;4.10;;;0.50;;
71667;SDS011;59504;54.806;9.640;2022-08-11T14:58:47;2.55;;;0.80;;
71667;SDS011;59504;54.806;9.640;2022-08-11T15:00:49;0.93;;;0.50;;
71667;SDS011;59504;54.806;9.640;2022-08-11T15:02:53;3.63;;;0.70;;
71667;SDS011;59504;54.806;9.640;2022-08-11T15:05:10;3.70;;;0.80;;
71667;SDS011;59504;54.806;9.640;2022-08-11T15:07:11;1.83;;;0.90;;
71667;SDS011;59504;54.806;9.640;2022-08-11T15:09:12;3.40;;;0.70;;
71667;SDS011;59504;54.806;9.640;2022-08-11T15:11:14;4.07;;;0.68;;
71667;SDS011;59504;54.806;9.640;2022-08-11T15:13:36;1.30;;;0.80;;
71667;SDS011;59504;54.806;9.640;2022-08-11T15:15:38;2.35;;;1.02;;
71667;SDS011;59504;54.806;9.640;2022-08-11T15:17:59;1.15;;;0.75;;
71667;SDS011;59504;54.806;9.640;2022-08-11T15:20:07;7.05;;;0.95;;
71667;SDS011;59504;54.806;9.640;2022-08-11T15:22:49;15.23;;;2.25;;
71667;SDS011;59504;54.806;9.640;2022-08-11T15:25:09;4.45;;;0.93;;
71667;SDS011;59504;54.806;9.640;2022-08-11T15:27:11;1.73;;;0.70;;
71667;SDS011;59504;54.806;9.640;2022-08-11T15:29:34;2.50;;;0.90;;
71667;SDS011;59504;54.806;9.640;2022-08-11T15:31:57;10.75;;;1.00;;
71667;SDS011;59504;54.806;9.640;2022-08-11T15:34:17;5.35;;;0.70;;
71667;SDS011;59504;54.806;9.640;2022-08-11T15:36:39;3.90;;;0.73;;
71667;SDS011;59504;54.806;9.640;2022-08-11T15:39:08;4.40;;;0.93;;
71667;SDS011;59504;54.806;9.640;2022-08-11T15:41:19;8.23;;;0.98;;
71667;SDS011;59504;54.806;9.640;2022-08-11T15:43:52;3.17;;;0.63;;
71667;SDS011;59504;54.806;9.640;2022-08-11T15:50:36;5.90;;;1.00;;
71667;SDS011;59504;54.806;9.640;2022-08-11T15:53:26;7.95;;;0.90;;
71667;SDS011;59504;54.806;9.640;2022-08-11T15:55:09;2.25;;;0.60;;
71667;SDS011;59504;54.806;9.640;2022-08-11T15:57:10;2.92;;;0.70;;
71667;SDS011;59504;54.806;9.640;2022-08-11T15:59:36;3.58;;;1.02;;
71667;SDS011;59504;54.806;9.640;2022-08-11T16:01:57;4.57;;;0.98;;
71667;SDS011;59504;54.806;9.640;2022-08-11T16:04:19;4.43;;;0.95;;
71667;SDS011;59504;54.806;9.640;2022-08-11T16:06:25;4.28;;;1.05;;
71667;SDS011;59504;54.806;9.640;2022-08-11T16:08:27;3.95;;;0.90;;
71667;SDS011;59504;54.806;9.640;2022-08-11T16:10:29;3.35;;;0.90;;
71667;SDS011;59504;54.806;9.640;2022-08-11T16:12:31;1.20;;;0.88;;
71667;SDS011;59504;54.806;9.640;2022-08-11T16:14:41;7.22;;;0.77;;
71667;SDS011;59504;54.806;9.640;2022-08-11T16:17:04;1.33;;;0.67;;
71667;SDS011;59504;54.806;9.640;2022-08-11T16:19:07;1.65;;;0.80;;
71667;SDS011;59504;54.806;9.640;2022-08-11T16:23:16;1.65;;;0.60;;
71667;SDS011;59504;54.806;9.640;2022-08-11T16:25:22;2.15;;;0.60;;
71667;SDS011;59504;54.806;9.640;2022-08-11T16:27:24;1.15;;;0.77;;
71667;SDS011;59504;54.806;9.640;2022-08-11T16:29:27;1.15;;;0.50;;
71667;SDS011;59504;54.806;9.640;2022-08-11T16:31:30;2.63;;;0.70;;
71667;SDS011;59504;54.806;9.640;2022-08-11T16:33:32;3.30;;;0.68;;
71667;SDS011;59504;54.806;9.640;2022-08-11T16:35:34;2.10;;;0.90;;
71667;SDS011;59504;54.806;9.640;2022-08-11T16:37:55;5.60;;;0.82;;